sensor_id;sensor_type;location;lat;lon;timestamp;P1;durP1;ratioP1;P2;durP2;ratioP2
27539;SDS011;15906;52.046;4.724;2023-04-28T00:00:10;8.88;;;6.50;;
27539;SDS011;15906;52.046;4.724;2023-04-28T00:02:36;11.80;;;7.32;;
27539;SDS011;15906;52.046;4.724;2023-04-28T00:05:01;12.20;;;7.00;;
27539;SDS011;15906;52.046;4.724;2023-04-28T00:07:27;10.75;;;6.78;;
27539;SDS011;15906;52.046;4.724;2023-04-28T00:09:53;10.40;;;6.35;;
27539;SDS011;15906;52.046;4.724;2023-04-28T00:12:18;10.15;;;6.72;;
27539;SDS011;15906;52.046;4.724;2023-04-28T00:14:44;9.50;;;6.07;;
27539;SDS011;15906;52.046;4.724;2023-04-28T00:17:09;12.20;;;7.05;;
27539;SDS011;15906;52.046;4.724;2023-04-28T00:19:35;10.13;;;6.03;;
27539;SDS011;15906;52.046;4.724;2023-04-28T00:22:02;9.55;;;6.35;;
27539;SDS011;15906;52.046;4.724;2023-04-28T00:24:28;12.07;;;7.25;;
27539;SDS011;15906;52.046;4.724;2023-04-28T00:26:54;13.15;;;7.28;;
27539;SDS011;15906;52.046;4.724;2023-04-28T00:29:21;10.43;;;6.75;;
27539;SDS011;15906;52.046;4.724;2023-04-28T00:31:46;10.32;;;6.20;;
27539;SDS011;15906;52.046;4.724;2023-04-28T00:34:12;12.02;;;6.65;;
27539;SDS011;15906;52.046;4.724;2023-04-28T00:36:39;11.05;;;6.78;;
27539;SDS011;15906;52.046;4.724;2023-04-28T00:39:05;14.02;;;7.38;;
27539;SDS011;15906;52.046;4.724;2023-04-28T00:41:30;13.48;;;7.40;;
27539;SDS011;15906;52.046;4.724;2023-04-28T00:43:58;13.55;;;6.70;;
27539;SDS011;15906;52.046;4.724;2023-04-28T00:46:25;11.40;;;6.68;;
27539;SDS011;15906;52.046;4.724;2023-04-28T00:48:54;11.85;;;6.43;;
27539;SDS011;15906;52.046;4.724;2023-04-28T00:51:20;9.55;;;6.68;;
27539;SDS011;15906;52.046;4.724;2023-04-28T00:53:45;10.82;;;6.90;;
27539;SDS011;15906;52.046;4.724;2023-04-28T00:56:12;11.07;;;6.97;;
27539;SDS011;15906;52.046;4.724;2023-04-28T00:58:37;9.88;;;7.00;;
27539;SDS011;15906;52.046;4.724;2023-04-28T01:01:04;8.88;;;6.50;;
27539;SDS011;15906;52.046;4.724;2023-04-28T01:03:33;10.27;;;7.13;;
27539;SDS011;15906;52.046;4.724;2023-04-28T01:05:59;12.18;;;7.78;;
27539;SDS011;15906;52.046;4.724;2023-04-28T01:08:29;10.00;;;6.53;;
27539;SDS011;15906;52.046;4.724;2023-04-28T01:10:55;11.57;;;6.88;;
27539;SDS011;15906;52.046;4.724;2023-04-28T01:13:21;10.25;;;6.90;;
27539;SDS011;15906;52.046;4.724;2023-04-28T01:15:46;13.57;;;7.55;;
27539;SDS011;15906;52.046;4.724;2023-04-28T01:18:12;14.65;;;7.55;;
27539;SDS011;15906;52.046;4.724;2023-04-28T01:20:38;10.07;;;7.90;;
27539;SDS011;15906;52.046;4.724;2023-04-28T01:23:10;11.77;;;7.18;;
27539;SDS011;15906;52.046;4.724;2023-04-28T01:25:39;13.32;;;7.47;;
27539;SDS011;15906;52.046;4.724;2023-04-28T01:28:06;12.73;;;7.90;;
27539;SDS011;15906;52.046;4.724;2023-04-28T01:30:32;11.30;;;7.30;;
27539;SDS011;15906;52.046;4.724;2023-04-28T01:32:57;12.63;;;7.65;;
27539;SDS011;15906;52.046;4.724;2023-04-28T01:35:23;10.85;;;7.18;;
27539;SDS011;15906;52.046;4.724;2023-04-28T01:37:48;11.55;;;7.65;;
27539;SDS011;15906;52.046;4.724;2023-04-28T01:40:14;12.68;;;7.07;;
27539;SDS011;15906;52.046;4.724;2023-04-28T01:42:40;10.02;;;6.95;;
27539;SDS011;15906;52.046;4.724;2023-04-28T01:45:05;12.45;;;7.50;;
27539;SDS011;15906;52.046;4.724;2023-04-28T01:47:31;12.45;;;7.60;;
27539;SDS011;15906;52.046;4.724;2023-04-28T01:49:57;12.60;;;8.13;;
27539;SDS011;15906;52.046;4.724;2023-04-28T01:52:23;10.93;;;7.38;;
27539;SDS011;15906;52.046;4.724;2023-04-28T01:54:49;12.85;;;7.85;;
27539;SDS011;15906;52.046;4.724;2023-04-28T01:57:15;10.93;;;7.55;;
27539;SDS011;15906;52.046;4.724;2023-04-28T01:59:40;11.27;;;7.03;;
27539;SDS011;15906;52.046;4.724;2023-04-28T02:02:06;13.05;;;7.55;;
27539;SDS011;15906;52.046;4.724;2023-04-28T02:04:32;10.55;;;7.15;;
27539;SDS011;15906;52.046;4.724;2023-04-28T02:06:57;14.32;;;7.50;;
27539;SDS011;15906;52.046;4.724;2023-04-28T02:09:23;10.20;;;7.30;;
27539;SDS011;15906;52.046;4.724;2023-04-28T02:11:49;14.20;;;7.97;;
27539;SDS011;15906;52.046;4.724;2023-04-28T02:14:15;11.60;;;7.90;;
27539;SDS011;15906;52.046;4.724;2023-04-28T02:16:41;14.98;;;8.38;;
27539;SDS011;15906;52.046;4.724;2023-04-28T02:19:06;12.18;;;7.65;;
27539;SDS011;15906;52.046;4.724;2023-04-28T02:21:32;11.70;;;7.68;;
27539;SDS011;15906;52.046;4.724;2023-04-28T02:23:57;15.50;;;8.13;;
27539;SDS011;15906;52.046;4.724;2023-04-28T02:26:23;15.48;;;8.00;;
27539;SDS011;15906;52.046;4.724;2023-04-28T02:28:49;12.10;;;7.40;;
27539;SDS011;15906;52.046;4.724;2023-04-28T02:31:15;12.93;;;7.93;;
27539;SDS011;15906;52.046;4.724;2023-04-28T02:33:41;15.52;;;8.02;;
27539;SDS011;15906;52.046;4.724;2023-04-28T02:36:07;13.35;;;8.00;;
27539;SDS011;15906;52.046;4.724;2023-04-28T02:38:33;11.82;;;7.75;;
27539;SDS011;15906;52.046;4.724;2023-04-28T02:41:00;12.05;;;7.78;;
27539;SDS011;15906;52.046;4.724;2023-04-28T02:43:27;14.10;;;8.07;;
27539;SDS011;15906;52.046;4.724;2023-04-28T02:45:53;10.20;;;7.38;;
27539;SDS011;15906;52.046;4.724;2023-04-28T02:48:19;11.57;;;7.35;;
27539;SDS011;15906;52.046;4.724;2023-04-28T02:50:44;12.68;;;7.10;;
27539;SDS011;15906;52.046;4.724;2023-04-28T02:53:10;14.23;;;6.97;;
27539;SDS011;15906;52.046;4.724;2023-04-28T02:55:36;10.48;;;6.93;;
27539;SDS011;15906;52.046;4.724;2023-04-28T02:58:02;11.23;;;7.35;;
27539;SDS011;15906;52.046;4.724;2023-04-28T03:00:27;13.73;;;7.18;;
27539;SDS011;15906;52.046;4.724;2023-04-28T03:02:53;14.60;;;7.40;;
27539;SDS011;15906;52.046;4.724;2023-04-28T03:05:19;14.07;;;6.90;;
27539;SDS011;15906;52.046;4.724;2023-04-28T03:07:45;11.52;;;7.70;;
27539;SDS011;15906;52.046;4.724;2023-04-28T03:10:10;11.45;;;7.28;;
27539;SDS011;15906;52.046;4.724;2023-04-28T03:12:36;10.35;;;7.10;;
27539;SDS011;15906;52.046;4.724;2023-04-28T03:15:02;11.68;;;6.72;;
27539;SDS011;15906;52.046;4.724;2023-04-28T03:17:28;10.30;;;7.28;;
27539;SDS011;15906;52.046;4.724;2023-04-28T03:19:53;14.70;;;7.75;;
27539;SDS011;15906;52.046;4.724;2023-04-28T03:22:19;10.82;;;7.47;;
27539;SDS011;15906;52.046;4.724;2023-04-28T03:24:45;14.93;;;7.68;;
27539;SDS011;15906;52.046;4.724;2023-04-28T03:27:10;11.73;;;7.47;;
27539;SDS011;15906;52.046;4.724;2023-04-28T03:29:36;14.65;;;7.63;;
27539;SDS011;15906;52.046;4.724;2023-04-28T03:32:02;10.60;;;7.07;;
27539;SDS011;15906;52.046;4.724;2023-04-28T03:34:27;10.30;;;6.90;;
27539;SDS011;15906;52.046;4.724;2023-04-28T03:36:53;10.50;;;7.22;;
27539;SDS011;15906;52.046;4.724;2023-04-28T03:39:18;12.80;;;7.47;;
27539;SDS011;15906;52.046;4.724;2023-04-28T03:41:44;10.27;;;7.78;;
27539;SDS011;15906;52.046;4.724;2023-04-28T03:44:09;11.15;;;7.80;;
27539;SDS011;15906;52.046;4.724;2023-04-28T03:46:35;13.57;;;7.65;;
27539;SDS011;15906;52.046;4.724;2023-04-28T03:49:01;12.05;;;7.60;;
27539;SDS011;15906;52.046;4.724;2023-04-28T03:51:27;15.60;;;8.30;;
27539;SDS011;15906;52.046;4.724;2023-04-28T03:53:53;12.20;;;8.25;;
27539;SDS011;15906;52.046;4.724;2023-04-28T03:56:19;14.60;;;8.38;;
27539;SDS011;15906;52.046;4.724;2023-04-28T03:58:45;12.77;;;8.52;;
27539;SDS011;15906;52.046;4.724;2023-04-28T04:01:11;16.38;;;8.73;;
27539;SDS011;15906;52.046;4.724;2023-04-28T04:03:36;13.98;;;8.40;;
27539;SDS011;15906;52.046;4.724;2023-04-28T04:06:02;12.00;;;7.75;;
27539;SDS011;15906;52.046;4.724;2023-04-28T04:08:28;11.90;;;7.57;;
27539;SDS011;15906;52.046;4.724;2023-04-28T04:10:54;15.30;;;8.52;;
27539;SDS011;15906;52.046;4.724;2023-04-28T04:13:20;11.45;;;7.63;;
27539;SDS011;15906;52.046;4.724;2023-04-28T04:15:48;9.40;;;6.75;;
27539;SDS011;15906;52.046;4.724;2023-04-28T04:18:16;13.65;;;8.13;;
27539;SDS011;15906;52.046;4.724;2023-04-28T04:20:42;15.02;;;7.90;;
27539;SDS011;15906;52.046;4.724;2023-04-28T04:23:07;12.90;;;7.60;;
27539;SDS011;15906;52.046;4.724;2023-04-28T04:25:33;12.00;;;7.50;;
27539;SDS011;15906;52.046;4.724;2023-04-28T04:27:59;14.00;;;7.85;;
27539;SDS011;15906;52.046;4.724;2023-04-28T04:30:24;13.95;;;8.45;;
27539;SDS011;15906;52.046;4.724;2023-04-28T04:32:50;10.98;;;6.93;;
27539;SDS011;15906;52.046;4.724;2023-04-28T04:35:15;11.13;;;7.45;;
27539;SDS011;15906;52.046;4.724;2023-04-28T04:37:41;13.93;;;7.78;;
27539;SDS011;15906;52.046;4.724;2023-04-28T04:40:07;14.68;;;7.95;;
27539;SDS011;15906;52.046;4.724;2023-04-28T04:42:33;13.52;;;7.93;;
27539;SDS011;15906;52.046;4.724;2023-04-28T04:44:58;11.05;;;7.90;;
27539;SDS011;15906;52.046;4.724;2023-04-28T04:47:24;12.68;;;7.80;;
27539;SDS011;15906;52.046;4.724;2023-04-28T04:49:50;14.20;;;8.23;;
27539;SDS011;15906;52.046;4.724;2023-04-28T04:52:16;12.20;;;8.50;;
27539;SDS011;15906;52.046;4.724;2023-04-28T04:54:42;14.27;;;7.78;;
27539;SDS011;15906;52.046;4.724;2023-04-28T04:57:08;14.90;;;7.88;;
27539;SDS011;15906;52.046;4.724;2023-04-28T04:59:35;19.23;;;8.35;;
27539;SDS011;15906;52.046;4.724;2023-04-28T05:02:01;14.32;;;8.90;;
27539;SDS011;15906;52.046;4.724;2023-04-28T05:04:26;16.55;;;8.80;;
27539;SDS011;15906;52.046;4.724;2023-04-28T05:06:52;14.57;;;8.73;;
27539;SDS011;15906;52.046;4.724;2023-04-28T05:09:18;11.57;;;8.48;;
27539;SDS011;15906;52.046;4.724;2023-04-28T05:11:44;15.18;;;9.27;;
27539;SDS011;15906;52.046;4.724;2023-04-28T05:14:09;15.38;;;9.85;;
27539;SDS011;15906;52.046;4.724;2023-04-28T05:16:36;14.40;;;9.15;;
27539;SDS011;15906;52.046;4.724;2023-04-28T05:19:02;16.33;;;9.48;;
27539;SDS011;15906;52.046;4.724;2023-04-28T05:21:28;13.80;;;8.70;;
27539;SDS011;15906;52.046;4.724;2023-04-28T05:23:55;14.02;;;9.77;;
27539;SDS011;15906;52.046;4.724;2023-04-28T05:26:21;13.60;;;9.38;;
27539;SDS011;15906;52.046;4.724;2023-04-28T05:28:47;13.80;;;9.10;;
27539;SDS011;15906;52.046;4.724;2023-04-28T05:31:12;16.40;;;9.93;;
27539;SDS011;15906;52.046;4.724;2023-04-28T05:33:38;14.18;;;9.57;;
27539;SDS011;15906;52.046;4.724;2023-04-28T05:36:04;18.75;;;10.30;;
27539;SDS011;15906;52.046;4.724;2023-04-28T05:38:30;21.38;;;11.70;;
27539;SDS011;15906;52.046;4.724;2023-04-28T05:40:56;17.17;;;11.10;;
27539;SDS011;15906;52.046;4.724;2023-04-28T05:43:22;19.70;;;10.52;;
27539;SDS011;15906;52.046;4.724;2023-04-28T05:45:48;18.17;;;11.25;;
27539;SDS011;15906;52.046;4.724;2023-04-28T05:48:13;24.98;;;11.95;;
27539;SDS011;15906;52.046;4.724;2023-04-28T05:50:40;24.92;;;12.60;;
27539;SDS011;15906;52.046;4.724;2023-04-28T05:53:05;21.95;;;11.77;;
27539;SDS011;15906;52.046;4.724;2023-04-28T05:55:31;23.60;;;11.88;;
27539;SDS011;15906;52.046;4.724;2023-04-28T05:57:58;18.50;;;11.18;;
27539;SDS011;15906;52.046;4.724;2023-04-28T06:00:24;17.60;;;11.40;;
27539;SDS011;15906;52.046;4.724;2023-04-28T06:02:50;20.42;;;12.70;;
27539;SDS011;15906;52.046;4.724;2023-04-28T06:05:15;17.45;;;11.68;;
27539;SDS011;15906;52.046;4.724;2023-04-28T06:07:41;19.25;;;12.60;;
27539;SDS011;15906;52.046;4.724;2023-04-28T06:10:07;20.38;;;12.20;;
27539;SDS011;15906;52.046;4.724;2023-04-28T06:12:33;19.63;;;12.43;;
27539;SDS011;15906;52.046;4.724;2023-04-28T06:14:58;20.17;;;13.25;;
27539;SDS011;15906;52.046;4.724;2023-04-28T06:17:24;20.70;;;12.32;;
27539;SDS011;15906;52.046;4.724;2023-04-28T06:19:49;19.10;;;13.23;;
27539;SDS011;15906;52.046;4.724;2023-04-28T06:22:18;21.70;;;13.07;;
27539;SDS011;15906;52.046;4.724;2023-04-28T06:24:44;20.88;;;13.30;;
27539;SDS011;15906;52.046;4.724;2023-04-28T06:27:09;19.65;;;13.75;;
27539;SDS011;15906;52.046;4.724;2023-04-28T06:29:35;21.77;;;13.55;;
27539;SDS011;15906;52.046;4.724;2023-04-28T06:32:01;21.13;;;13.52;;
27539;SDS011;15906;52.046;4.724;2023-04-28T06:34:26;23.75;;;14.23;;
27539;SDS011;15906;52.046;4.724;2023-04-28T06:36:53;21.15;;;13.93;;
27539;SDS011;15906;52.046;4.724;2023-04-28T06:39:20;21.20;;;13.85;;
27539;SDS011;15906;52.046;4.724;2023-04-28T06:41:46;21.58;;;14.10;;
27539;SDS011;15906;52.046;4.724;2023-04-28T06:44:11;22.90;;;15.15;;
27539;SDS011;15906;52.046;4.724;2023-04-28T06:46:37;24.45;;;14.75;;
27539;SDS011;15906;52.046;4.724;2023-04-28T06:49:02;24.95;;;15.18;;
27539;SDS011;15906;52.046;4.724;2023-04-28T06:51:29;24.63;;;15.07;;
27539;SDS011;15906;52.046;4.724;2023-04-28T06:53:57;22.75;;;15.43;;
27539;SDS011;15906;52.046;4.724;2023-04-28T06:56:22;25.02;;;16.85;;
27539;SDS011;15906;52.046;4.724;2023-04-28T06:58:48;23.60;;;16.60;;
27539;SDS011;15906;52.046;4.724;2023-04-28T07:01:15;23.45;;;15.90;;
27539;SDS011;15906;52.046;4.724;2023-04-28T07:03:41;25.98;;;17.33;;
27539;SDS011;15906;52.046;4.724;2023-04-28T07:06:07;25.48;;;16.92;;
27539;SDS011;15906;52.046;4.724;2023-04-28T07:08:33;27.45;;;16.67;;
27539;SDS011;15906;52.046;4.724;2023-04-28T07:10:59;26.42;;;17.63;;
27539;SDS011;15906;52.046;4.724;2023-04-28T07:13:28;26.80;;;18.60;;
27539;SDS011;15906;52.046;4.724;2023-04-28T07:15:57;27.58;;;18.10;;
27539;SDS011;15906;52.046;4.724;2023-04-28T07:18:22;24.90;;;17.70;;
27539;SDS011;15906;52.046;4.724;2023-04-28T07:20:48;27.15;;;18.65;;
27539;SDS011;15906;52.046;4.724;2023-04-28T07:23:14;30.42;;;19.10;;
27539;SDS011;15906;52.046;4.724;2023-04-28T07:25:39;29.67;;;19.50;;
27539;SDS011;15906;52.046;4.724;2023-04-28T07:28:05;28.08;;;18.80;;
27539;SDS011;15906;52.046;4.724;2023-04-28T07:30:31;29.58;;;19.42;;
27539;SDS011;15906;52.046;4.724;2023-04-28T07:32:58;33.75;;;19.42;;
27539;SDS011;15906;52.046;4.724;2023-04-28T07:35:24;34.20;;;20.83;;
27539;SDS011;15906;52.046;4.724;2023-04-28T07:37:50;31.73;;;20.80;;
27539;SDS011;15906;52.046;4.724;2023-04-28T07:40:16;26.08;;;20.00;;
27539;SDS011;15906;52.046;4.724;2023-04-28T07:42:42;33.72;;;21.15;;
27539;SDS011;15906;52.046;4.724;2023-04-28T07:45:08;32.13;;;20.52;;
27539;SDS011;15906;52.046;4.724;2023-04-28T07:47:34;32.28;;;20.70;;
27539;SDS011;15906;52.046;4.724;2023-04-28T07:50:00;35.92;;;22.42;;
27539;SDS011;15906;52.046;4.724;2023-04-28T07:52:31;33.08;;;21.75;;
27539;SDS011;15906;52.046;4.724;2023-04-28T07:54:57;37.03;;;22.08;;
27539;SDS011;15906;52.046;4.724;2023-04-28T07:57:23;39.42;;;23.70;;
27539;SDS011;15906;52.046;4.724;2023-04-28T07:59:49;33.13;;;22.85;;
27539;SDS011;15906;52.046;4.724;2023-04-28T08:02:15;37.70;;;25.30;;
27539;SDS011;15906;52.046;4.724;2023-04-28T08:04:41;39.80;;;26.52;;
27539;SDS011;15906;52.046;4.724;2023-04-28T08:07:07;36.38;;;25.52;;
27539;SDS011;15906;52.046;4.724;2023-04-28T08:09:33;40.78;;;25.98;;
27539;SDS011;15906;52.046;4.724;2023-04-28T08:11:59;46.75;;;28.25;;
27539;SDS011;15906;52.046;4.724;2023-04-28T08:14:25;40.90;;;27.67;;
27539;SDS011;15906;52.046;4.724;2023-04-28T08:16:51;39.58;;;26.63;;
27539;SDS011;15906;52.046;4.724;2023-04-28T08:19:17;40.38;;;28.23;;
27539;SDS011;15906;52.046;4.724;2023-04-28T08:21:43;38.75;;;27.83;;
27539;SDS011;15906;52.046;4.724;2023-04-28T08:24:09;42.65;;;27.67;;
27539;SDS011;15906;52.046;4.724;2023-04-28T08:26:35;42.42;;;27.98;;
27539;SDS011;15906;52.046;4.724;2023-04-28T08:29:02;42.95;;;27.98;;
27539;SDS011;15906;52.046;4.724;2023-04-28T08:31:27;45.33;;;29.35;;
27539;SDS011;15906;52.046;4.724;2023-04-28T08:33:53;40.88;;;28.05;;
27539;SDS011;15906;52.046;4.724;2023-04-28T08:36:19;44.67;;;29.15;;
27539;SDS011;15906;52.046;4.724;2023-04-28T08:38:45;43.35;;;28.40;;
27539;SDS011;15906;52.046;4.724;2023-04-28T08:41:15;47.30;;;29.67;;
27539;SDS011;15906;52.046;4.724;2023-04-28T08:43:41;46.30;;;29.05;;
27539;SDS011;15906;52.046;4.724;2023-04-28T08:46:07;43.72;;;29.55;;
27539;SDS011;15906;52.046;4.724;2023-04-28T08:48:41;44.53;;;28.60;;
27539;SDS011;15906;52.046;4.724;2023-04-28T08:51:09;41.30;;;29.52;;
27539;SDS011;15906;52.046;4.724;2023-04-28T08:53:39;49.58;;;31.50;;
27539;SDS011;15906;52.046;4.724;2023-04-28T08:56:08;46.75;;;30.33;;
27539;SDS011;15906;52.046;4.724;2023-04-28T08:58:37;43.05;;;28.92;;
27539;SDS011;15906;52.046;4.724;2023-04-28T09:01:03;44.92;;;29.50;;
27539;SDS011;15906;52.046;4.724;2023-04-28T09:03:30;44.40;;;29.27;;
27539;SDS011;15906;52.046;4.724;2023-04-28T09:05:57;44.35;;;29.27;;
27539;SDS011;15906;52.046;4.724;2023-04-28T09:08:22;45.00;;;31.08;;
27539;SDS011;15906;52.046;4.724;2023-04-28T09:10:50;42.10;;;27.92;;
27539;SDS011;15906;52.046;4.724;2023-04-28T09:13:33;44.78;;;30.15;;
27539;SDS011;15906;52.046;4.724;2023-04-28T09:16:00;45.25;;;28.45;;
27539;SDS011;15906;52.046;4.724;2023-04-28T09:18:27;40.50;;;28.70;;
27539;SDS011;15906;52.046;4.724;2023-04-28T09:21:01;42.60;;;28.33;;
27539;SDS011;15906;52.046;4.724;2023-04-28T09:23:31;39.88;;;27.10;;
27539;SDS011;15906;52.046;4.724;2023-04-28T09:26:03;40.28;;;27.33;;
27539;SDS011;15906;52.046;4.724;2023-04-28T09:28:31;37.97;;;26.75;;
27539;SDS011;15906;52.046;4.724;2023-04-28T09:30:58;36.63;;;25.75;;
27539;SDS011;15906;52.046;4.724;2023-04-28T09:33:24;39.55;;;25.90;;
27539;SDS011;15906;52.046;4.724;2023-04-28T09:35:50;36.85;;;26.17;;
27539;SDS011;15906;52.046;4.724;2023-04-28T09:38:17;38.45;;;25.83;;
27539;SDS011;15906;52.046;4.724;2023-04-28T09:40:51;33.72;;;23.20;;
27539;SDS011;15906;52.046;4.724;2023-04-28T09:45:57;33.50;;;22.92;;
27539;SDS011;15906;52.046;4.724;2023-04-28T09:48:31;32.20;;;23.23;;
27539;SDS011;15906;52.046;4.724;2023-04-28T09:50:59;29.17;;;20.40;;
27539;SDS011;15906;52.046;4.724;2023-04-28T09:53:26;30.08;;;21.48;;
27539;SDS011;15906;52.046;4.724;2023-04-28T09:55:53;28.60;;;20.80;;
27539;SDS011;15906;52.046;4.724;2023-04-28T09:58:21;29.75;;;20.42;;
27539;SDS011;15906;52.046;4.724;2023-04-28T10:00:49;28.52;;;19.40;;
27539;SDS011;15906;52.046;4.724;2023-04-28T10:03:23;25.30;;;18.73;;
27539;SDS011;15906;52.046;4.724;2023-04-28T10:05:53;25.60;;;19.08;;
27539;SDS011;15906;52.046;4.724;2023-04-28T10:08:20;25.83;;;18.67;;
27539;SDS011;15906;52.046;4.724;2023-04-28T10:10:47;24.00;;;17.70;;
27539;SDS011;15906;52.046;4.724;2023-04-28T10:13:16;21.83;;;15.38;;
27539;SDS011;15906;52.046;4.724;2023-04-28T10:15:43;16.60;;;13.32;;
27539;SDS011;15906;52.046;4.724;2023-04-28T10:18:10;16.98;;;13.18;;
27539;SDS011;15906;52.046;4.724;2023-04-28T10:20:38;14.07;;;10.88;;
27539;SDS011;15906;52.046;4.724;2023-04-28T10:25:43;11.82;;;8.02;;
27539;SDS011;15906;52.046;4.724;2023-04-28T10:28:18;9.80;;;7.10;;
27539;SDS011;15906;52.046;4.724;2023-04-28T10:31:07;9.90;;;6.53;;
27539;SDS011;15906;52.046;4.724;2023-04-28T10:33:33;11.15;;;6.40;;
27539;SDS011;15906;52.046;4.724;2023-04-28T10:35:58;9.57;;;7.18;;
27539;SDS011;15906;52.046;4.724;2023-04-28T10:38:24;11.32;;;6.43;;
27539;SDS011;15906;52.046;4.724;2023-04-28T10:40:50;10.35;;;6.38;;
27539;SDS011;15906;52.046;4.724;2023-04-28T10:48:21;7.05;;;4.07;;
27539;SDS011;15906;52.046;4.724;2023-04-28T10:51:02;4.13;;;3.38;;
27539;SDS011;15906;52.046;4.724;2023-04-28T10:58:46;8.48;;;6.78;;
27539;SDS011;15906;52.046;4.724;2023-04-28T11:03:50;8.85;;;6.50;;
27539;SDS011;15906;52.046;4.724;2023-04-28T11:06:28;9.95;;;7.47;;
27539;SDS011;15906;52.046;4.724;2023-04-28T11:19:22;11.70;;;10.45;;
27539;SDS011;15906;52.046;4.724;2023-04-28T11:21:49;10.27;;;9.10;;
27539;SDS011;15906;52.046;4.724;2023-04-28T11:24:16;8.73;;;7.45;;
27539;SDS011;15906;52.046;4.724;2023-04-28T11:26:42;7.35;;;5.82;;
27539;SDS011;15906;52.046;4.724;2023-04-28T11:29:09;6.10;;;5.55;;
27539;SDS011;15906;52.046;4.724;2023-04-28T11:31:35;6.43;;;5.53;;
27539;SDS011;15906;52.046;4.724;2023-04-28T11:36:30;6.05;;;5.20;;
27539;SDS011;15906;52.046;4.724;2023-04-28T11:38:57;4.90;;;4.40;;
27539;SDS011;15906;52.046;4.724;2023-04-28T11:41:23;4.90;;;3.88;;
27539;SDS011;15906;52.046;4.724;2023-04-28T11:43:50;4.22;;;3.83;;
27539;SDS011;15906;52.046;4.724;2023-04-28T11:46:20;5.65;;;3.85;;
27539;SDS011;15906;52.046;4.724;2023-04-28T11:48:48;3.65;;;3.30;;
27539;SDS011;15906;52.046;4.724;2023-04-28T11:51:30;6.95;;;3.65;;
27539;SDS011;15906;52.046;4.724;2023-04-28T11:54:00;5.35;;;3.22;;
27539;SDS011;15906;52.046;4.724;2023-04-28T11:56:27;3.28;;;2.97;;
27539;SDS011;15906;52.046;4.724;2023-04-28T11:59:00;4.30;;;3.88;;
27539;SDS011;15906;52.046;4.724;2023-04-28T12:01:29;4.30;;;3.55;;
27539;SDS011;15906;52.046;4.724;2023-04-28T12:03:55;3.97;;;3.58;;
27539;SDS011;15906;52.046;4.724;2023-04-28T12:06:21;4.07;;;3.47;;
27539;SDS011;15906;52.046;4.724;2023-04-28T12:08:47;4.80;;;3.67;;
27539;SDS011;15906;52.046;4.724;2023-04-28T12:11:13;4.47;;;2.97;;
27539;SDS011;15906;52.046;4.724;2023-04-28T12:13:41;3.55;;;3.25;;
27539;SDS011;15906;52.046;4.724;2023-04-28T12:16:07;3.58;;;2.97;;
27539;SDS011;15906;52.046;4.724;2023-04-28T12:18:34;2.30;;;2.00;;
27539;SDS011;15906;52.046;4.724;2023-04-28T12:21:02;1.60;;;1.50;;
27539;SDS011;15906;52.046;4.724;2023-04-28T12:23:32;1.65;;;1.55;;
27539;SDS011;15906;52.046;4.724;2023-04-28T12:25:59;1.50;;;1.40;;
27539;SDS011;15906;52.046;4.724;2023-04-28T12:28:35;1.30;;;1.20;;
27539;SDS011;15906;52.046;4.724;2023-04-28T12:31:05;1.42;;;1.33;;
27539;SDS011;15906;52.046;4.724;2023-04-28T12:33:33;2.58;;;1.80;;
27539;SDS011;15906;52.046;4.724;2023-04-28T12:36:01;2.22;;;1.52;;
27539;SDS011;15906;52.046;4.724;2023-04-28T12:38:28;1.55;;;1.45;;
27539;SDS011;15906;52.046;4.724;2023-04-28T12:40:54;2.40;;;2.10;;
27539;SDS011;15906;52.046;4.724;2023-04-28T12:43:20;2.80;;;2.13;;
27539;SDS011;15906;52.046;4.724;2023-04-28T12:45:49;3.00;;;2.40;;
27539;SDS011;15906;52.046;4.724;2023-04-28T12:48:16;4.03;;;2.70;;
27539;SDS011;15906;52.046;4.724;2023-04-28T12:50:42;3.40;;;3.10;;
27539;SDS011;15906;52.046;4.724;2023-04-28T12:53:08;5.57;;;3.30;;
27539;SDS011;15906;52.046;4.724;2023-04-28T12:55:33;6.05;;;4.05;;
27539;SDS011;15906;52.046;4.724;2023-04-28T12:57:59;5.00;;;4.50;;
27539;SDS011;15906;52.046;4.724;2023-04-28T13:00:24;7.25;;;5.32;;
27539;SDS011;15906;52.046;4.724;2023-04-28T13:02:50;8.57;;;6.20;;
27539;SDS011;15906;52.046;4.724;2023-04-28T13:05:17;10.43;;;6.60;;
27539;SDS011;15906;52.046;4.724;2023-04-28T13:07:43;9.77;;;7.80;;
27539;SDS011;15906;52.046;4.724;2023-04-28T13:10:09;10.65;;;7.53;;
27539;SDS011;15906;52.046;4.724;2023-04-28T13:12:34;10.88;;;8.65;;
27539;SDS011;15906;52.046;4.724;2023-04-28T13:15:00;14.80;;;9.68;;
27539;SDS011;15906;52.046;4.724;2023-04-28T13:17:26;15.10;;;9.88;;
27539;SDS011;15906;52.046;4.724;2023-04-28T13:19:52;13.13;;;9.48;;
27539;SDS011;15906;52.046;4.724;2023-04-28T13:22:18;16.00;;;10.10;;
27539;SDS011;15906;52.046;4.724;2023-04-28T13:24:45;16.00;;;9.88;;
27539;SDS011;15906;52.046;4.724;2023-04-28T13:27:11;14.70;;;10.05;;
27539;SDS011;15906;52.046;4.724;2023-04-28T13:29:37;14.65;;;9.07;;
27539;SDS011;15906;52.046;4.724;2023-04-28T13:32:02;10.50;;;8.90;;
27539;SDS011;15906;52.046;4.724;2023-04-28T13:34:29;13.35;;;9.45;;
27539;SDS011;15906;52.046;4.724;2023-04-28T13:36:55;11.23;;;8.60;;
27539;SDS011;15906;52.046;4.724;2023-04-28T13:39:21;10.80;;;7.38;;
27539;SDS011;15906;52.046;4.724;2023-04-28T13:41:47;14.82;;;8.95;;
27539;SDS011;15906;52.046;4.724;2023-04-28T13:44:13;19.80;;;10.43;;
27539;SDS011;15906;52.046;4.724;2023-04-28T13:46:39;19.65;;;11.20;;
27539;SDS011;15906;52.046;4.724;2023-04-28T13:49:05;22.83;;;11.75;;
27539;SDS011;15906;52.046;4.724;2023-04-28T13:51:31;18.67;;;12.30;;
27539;SDS011;15906;52.046;4.724;2023-04-28T13:53:57;20.98;;;12.45;;
27539;SDS011;15906;52.046;4.724;2023-04-28T13:56:23;22.92;;;13.57;;
27539;SDS011;15906;52.046;4.724;2023-04-28T13:58:49;25.25;;;13.85;;
27539;SDS011;15906;52.046;4.724;2023-04-28T14:01:14;19.70;;;12.48;;
27539;SDS011;15906;52.046;4.724;2023-04-28T14:03:40;18.83;;;11.80;;
27539;SDS011;15906;52.046;4.724;2023-04-28T14:06:06;17.80;;;11.57;;
27539;SDS011;15906;52.046;4.724;2023-04-28T14:08:32;18.45;;;10.95;;
27539;SDS011;15906;52.046;4.724;2023-04-28T14:10:57;16.65;;;10.70;;
27539;SDS011;15906;52.046;4.724;2023-04-28T14:13:23;17.15;;;10.68;;
27539;SDS011;15906;52.046;4.724;2023-04-28T14:15:52;16.17;;;10.43;;
27539;SDS011;15906;52.046;4.724;2023-04-28T14:18:18;13.35;;;9.65;;
27539;SDS011;15906;52.046;4.724;2023-04-28T14:20:44;14.05;;;10.00;;
27539;SDS011;15906;52.046;4.724;2023-04-28T14:23:09;13.95;;;9.27;;
27539;SDS011;15906;52.046;4.724;2023-04-28T14:25:35;15.40;;;9.15;;
27539;SDS011;15906;52.046;4.724;2023-04-28T14:28:01;12.43;;;8.45;;
27539;SDS011;15906;52.046;4.724;2023-04-28T14:30:27;14.55;;;9.07;;
27539;SDS011;15906;52.046;4.724;2023-04-28T14:32:52;12.60;;;8.65;;
27539;SDS011;15906;52.046;4.724;2023-04-28T14:35:18;15.75;;;9.30;;
27539;SDS011;15906;52.046;4.724;2023-04-28T14:37:45;16.00;;;9.27;;
27539;SDS011;15906;52.046;4.724;2023-04-28T14:40:11;15.85;;;9.82;;
27539;SDS011;15906;52.046;4.724;2023-04-28T14:42:38;18.60;;;9.88;;
27539;SDS011;15906;52.046;4.724;2023-04-28T14:45:04;16.50;;;10.63;;
27539;SDS011;15906;52.046;4.724;2023-04-28T14:47:31;23.42;;;11.63;;
27539;SDS011;15906;52.046;4.724;2023-04-28T14:49:57;18.70;;;11.38;;
27539;SDS011;15906;52.046;4.724;2023-04-28T14:52:23;19.98;;;11.82;;
27539;SDS011;15906;52.046;4.724;2023-04-28T14:54:51;19.25;;;11.85;;
27539;SDS011;15906;52.046;4.724;2023-04-28T14:57:18;22.88;;;11.60;;